createdAt,value
2018-01-26T00:01:20.678Z,4.57
2018-01-26T00:03:49.087Z,4.10
2018-01-26T00:06:17.298Z,4.50
2018-01-26T00:08:45.462Z,4.30
2018-01-26T00:11:12.938Z,4.63
2018-01-26T00:13:40.682Z,4.27
2018-01-26T00:16:08.154Z,4.83
2018-01-26T00:18:35.618Z,4.43
2018-01-26T00:21:03.367Z,4.57
2018-01-26T00:23:30.910Z,4.43
2018-01-26T00:25:58.741Z,4.37
2018-01-26T00:28:26.215Z,5.27
2018-01-26T00:30:53.935Z,4.43
2018-01-26T00:33:21.430Z,4.20
2018-01-26T00:35:49.368Z,3.93
2018-01-26T00:40:44.054Z,4.83
2018-01-26T00:43:11.527Z,5.50
2018-01-26T00:45:38.984Z,5.67
2018-01-26T00:48:06.455Z,5.60
2018-01-26T00:50:33.904Z,5.53
2018-01-26T00:53:01.375Z,5.00
2018-01-26T00:55:28.824Z,5.30
2018-01-26T00:57:56.337Z,5.33
2018-01-26T01:00:23.788Z,5.13
2018-01-26T01:02:51.237Z,4.83
2018-01-26T01:05:18.720Z,5.40
2018-01-26T01:07:52.132Z,5.57
2018-01-26T01:10:19.617Z,5.03
2018-01-26T01:12:47.071Z,5.07
2018-01-26T01:15:14.539Z,5.27
2018-01-26T01:17:42.011Z,5.57
2018-01-26T01:20:09.485Z,5.40
2018-01-26T01:22:36.940Z,5.70
2018-01-26T01:25:04.406Z,5.63
2018-01-26T01:27:31.854Z,5.13
2018-01-26T01:29:59.315Z,4.87
2018-01-26T01:32:26.775Z,5.20
2018-01-26T01:34:54.248Z,4.90
2018-01-26T01:37:21.726Z,4.77
2018-01-26T01:39:49.210Z,4.07
2018-01-26T01:42:16.653Z,5.00
2018-01-26T01:44:44.114Z,4.70
2018-01-26T01:47:11.558Z,4.77
2018-01-26T01:49:39.026Z,4.67
2018-01-26T01:52:06.487Z,4.87
2018-01-26T01:54:33.954Z,4.97
2018-01-26T01:57:01.402Z,4.90
2018-01-26T01:59:28.867Z,5.73
2018-01-26T02:01:56.322Z,5.07
2018-01-26T02:04:23.803Z,5.80
2018-01-26T02:06:51.251Z,6.60
2018-01-26T02:09:18.720Z,5.67
2018-01-26T02:11:46.166Z,6.10
2018-01-26T02:14:13.634Z,6.47
2018-01-26T02:16:41.079Z,6.40
2018-01-26T02:19:08.554Z,6.47
2018-01-26T02:21:36.015Z,6.67
2018-01-26T02:24:21.107Z,6.10
2018-01-26T02:26:48.550Z,6.03
2018-01-26T02:29:16.063Z,6.00
2018-01-26T02:31:43.515Z,6.73
2018-01-26T02:34:10.972Z,6.70
2018-01-26T02:36:38.440Z,6.20
2018-01-26T02:39:05.895Z,6.27
2018-01-26T02:41:33.367Z,6.37
2018-01-26T02:44:00.812Z,6.40
2018-01-26T02:46:28.283Z,6.70
2018-01-26T02:48:55.730Z,6.10
2018-01-26T02:51:23.200Z,6.73
2018-01-26T02:53:50.666Z,6.50
2018-01-26T02:56:18.151Z,6.10
2018-01-26T02:58:45.594Z,6.00
2018-01-26T03:01:13.063Z,5.40
2018-01-26T03:03:40.515Z,5.13
2018-01-26T03:06:07.986Z,5.30
2018-01-26T03:08:35.434Z,4.90
2018-01-26T03:11:02.902Z,5.30
2018-01-26T03:13:30.350Z,4.77
2018-01-26T03:15:57.821Z,5.00
2018-01-26T03:18:25.351Z,5.53
2018-01-26T03:20:52.827Z,6.37
2018-01-26T03:23:20.287Z,7.80
2018-01-26T03:25:47.763Z,6.47
2018-01-26T03:28:15.210Z,6.00
2018-01-26T03:30:42.718Z,6.70
2018-01-26T03:33:10.169Z,5.97
2018-01-26T03:35:37.641Z,5.50
2018-01-26T03:38:05.087Z,5.73
2018-01-26T03:40:32.562Z,5.53
2018-01-26T03:43:00.012Z,6.23
2018-01-26T03:45:27.462Z,6.80
2018-01-26T03:47:54.926Z,6.40
2018-01-26T03:50:22.375Z,6.57
2018-01-26T03:52:49.870Z,6.90
2018-01-26T03:55:17.326Z,6.97
2018-01-26T03:57:44.806Z,7.20
2018-01-26T04:00:12.255Z,6.73
2018-01-26T04:02:39.730Z,7.17
2018-01-26T04:05:07.186Z,7.43
2018-01-26T04:07:34.666Z,7.60
2018-01-26T04:10:02.126Z,7.13
2018-01-26T04:12:29.602Z,7.23
2018-01-26T04:14:57.067Z,7.80
2018-01-26T04:17:24.543Z,7.07
2018-01-26T04:19:52.009Z,6.90
2018-01-26T04:22:19.482Z,7.27
2018-01-26T04:24:46.939Z,7.40
2018-01-26T04:27:14.418Z,8.07
2018-01-26T04:29:41.875Z,7.60
2018-01-26T04:32:09.362Z,7.40
2018-01-26T04:34:36.815Z,7.87
2018-01-26T04:37:04.291Z,7.40
2018-01-26T04:39:31.751Z,7.93
2018-01-26T04:41:59.216Z,7.80
2018-01-26T04:44:26.678Z,7.90
2018-01-26T04:46:54.154Z,7.80
2018-01-26T04:49:21.610Z,7.70
2018-01-26T04:51:49.087Z,7.53
2018-01-26T04:54:16.543Z,8.07
2018-01-26T04:56:44.024Z,7.67
2018-01-26T04:59:11.478Z,7.60
2018-01-26T05:01:38.946Z,7.50
2018-01-26T05:04:06.399Z,7.50
2018-01-26T05:06:33.862Z,7.90
2018-01-26T05:09:01.385Z,7.93
2018-01-26T05:11:28.844Z,8.70
2018-01-26T05:13:56.318Z,8.93
2018-01-26T05:16:23.769Z,8.50
2018-01-26T05:18:51.247Z,9.47
2018-01-26T05:21:18.702Z,9.30
2018-01-26T05:23:46.170Z,8.40
2018-01-26T05:26:13.630Z,8.77
2018-01-26T05:28:41.110Z,7.60
2018-01-26T05:31:08.566Z,8.17
2018-01-26T05:33:36.051Z,8.07
2018-01-26T05:36:03.523Z,8.60
2018-01-26T05:38:30.995Z,7.63
2018-01-26T05:40:58.458Z,7.67
2018-01-26T05:43:25.930Z,8.00
2018-01-26T05:45:53.399Z,8.13
2018-01-26T05:48:20.907Z,8.20
2018-01-26T05:50:48.367Z,8.47
2018-01-26T05:53:15.843Z,8.67
2018-01-26T05:55:43.298Z,9.13
2018-01-26T05:58:10.778Z,8.43
2018-01-26T06:00:38.239Z,9.43
2018-01-26T06:03:05.718Z,9.10
2018-01-26T06:05:33.271Z,8.70
2018-01-26T06:08:00.755Z,8.70
2018-01-26T06:10:28.216Z,9.20
2018-01-26T06:12:55.691Z,8.77
2018-01-26T06:15:23.155Z,9.33
2018-01-26T06:17:50.703Z,9.43
2018-01-26T06:20:18.167Z,10.30
2018-01-26T06:22:45.643Z,9.43
2018-01-26T06:25:13.099Z,9.17
2018-01-26T06:27:40.554Z,8.90
2018-01-26T06:30:08.032Z,8.70
2018-01-26T06:32:35.495Z,8.23
2018-01-26T06:35:02.976Z,7.63
2018-01-26T06:40:04.279Z,8.20
2018-01-26T06:42:31.739Z,7.77
2018-01-26T06:44:59.219Z,7.10
2018-01-26T06:47:26.675Z,7.20
2018-01-26T06:49:54.379Z,7.53
2018-01-26T06:52:21.835Z,7.30
2018-01-26T06:54:49.321Z,7.33
2018-01-26T06:57:16.794Z,7.63
2018-01-26T06:59:44.276Z,7.80
2018-01-26T07:02:11.722Z,7.10
2018-01-26T07:04:39.203Z,7.03
2018-01-26T07:07:06.661Z,6.73
2018-01-26T07:09:34.143Z,6.77
2018-01-26T07:12:01.608Z,6.63
2018-01-26T07:14:29.098Z,8.10
2018-01-26T07:16:56.563Z,8.40
2018-01-26T07:19:24.085Z,7.93
2018-01-26T07:21:51.526Z,8.37
2018-01-26T07:24:19.020Z,8.30
2018-01-26T07:26:46.487Z,7.17
2018-01-26T07:29:13.967Z,8.83
2018-01-26T07:31:44.439Z,7.57
2018-01-26T07:34:11.941Z,7.83
2018-01-26T07:36:39.441Z,7.83
2018-01-26T07:39:06.894Z,7.07
2018-01-26T07:41:34.355Z,7.67
2018-01-26T07:44:01.851Z,7.97
2018-01-26T07:46:29.310Z,10.80
2018-01-26T07:48:56.811Z,13.57
2018-01-26T07:51:24.281Z,11.77
2018-01-26T07:53:51.767Z,9.03
2018-01-26T07:56:19.227Z,8.97
2018-01-26T07:58:46.691Z,6.70
2018-01-26T08:01:14.174Z,7.00
2018-01-26T08:03:41.635Z,7.00
2018-01-26T08:06:09.110Z,6.70
2018-01-26T08:08:36.590Z,6.00
2018-01-26T08:11:04.067Z,6.03
2018-01-26T08:13:31.527Z,6.87
2018-01-26T08:15:59.001Z,6.30
2018-01-26T08:18:26.450Z,6.50
2018-01-26T08:20:53.928Z,6.57
2018-01-26T08:23:21.382Z,6.43
2018-01-26T08:25:48.863Z,6.70
2018-01-26T08:28:16.322Z,8.83
2018-01-26T08:30:43.794Z,9.17
2018-01-26T08:33:11.255Z,9.13
2018-01-26T08:35:38.867Z,9.93
2018-01-26T08:38:06.336Z,8.50
2018-01-26T08:40:33.819Z,7.03
2018-01-26T08:43:01.279Z,6.40
2018-01-26T08:45:28.778Z,6.80
2018-01-26T08:47:56.256Z,9.43
2018-01-26T08:50:23.738Z,7.63
2018-01-26T08:52:51.191Z,7.20
2018-01-26T08:55:19.585Z,11.40
2018-01-26T08:57:47.043Z,6.80
2018-01-26T09:00:14.528Z,6.17
2018-01-26T09:02:41.982Z,6.00
2018-01-26T09:05:09.510Z,5.80
2018-01-26T09:07:36.958Z,6.30
2018-01-26T09:10:04.430Z,6.00
2018-01-26T09:12:31.887Z,6.07
2018-01-26T09:14:59.363Z,6.20
2018-01-26T09:17:26.819Z,5.53
2018-01-26T09:19:54.270Z,5.67
2018-01-26T09:22:21.746Z,6.10
2018-01-26T09:24:49.212Z,6.43
2018-01-26T09:27:16.695Z,6.53
2018-01-26T09:29:44.165Z,6.77
2018-01-26T09:32:11.648Z,6.30
2018-01-26T09:34:39.131Z,5.43
2018-01-26T09:37:06.633Z,6.07
2018-01-26T09:39:34.083Z,6.20
2018-01-26T09:42:01.562Z,5.60
2018-01-26T09:44:29.011Z,5.07
2018-01-26T09:46:56.499Z,5.70
2018-01-26T09:49:23.960Z,6.07
2018-01-26T09:51:51.439Z,5.43
2018-01-26T09:54:18.902Z,5.23
2018-01-26T09:56:46.383Z,5.37
2018-01-26T09:59:13.842Z,5.63
2018-01-26T10:01:41.320Z,6.63
2018-01-26T10:04:08.781Z,6.17
2018-01-26T10:06:36.267Z,7.00
2018-01-26T10:09:03.727Z,6.83
2018-01-26T10:11:31.205Z,6.83
2018-01-26T10:13:58.662Z,6.67
2018-01-26T10:16:26.169Z,7.07
2018-01-26T10:18:53.630Z,6.63
2018-01-26T10:21:21.115Z,6.00
2018-01-26T10:23:48.582Z,6.30
2018-01-26T10:26:16.071Z,7.10
2018-01-26T10:28:43.543Z,7.10
2018-01-26T10:31:11.015Z,6.00
2018-01-26T10:33:38.482Z,5.80
2018-01-26T10:36:05.984Z,7.73
2018-01-26T10:38:33.455Z,6.80
2018-01-26T10:41:00.978Z,6.03
2018-01-26T10:43:28.471Z,6.93
2018-01-26T10:45:55.958Z,6.40
2018-01-26T10:48:23.435Z,4.97
2018-01-26T10:50:50.906Z,5.60
2018-01-26T10:53:18.395Z,5.53
2018-01-26T10:55:45.868Z,4.90
2018-01-26T10:58:13.364Z,5.67
2018-01-26T11:00:43.630Z,5.53
2018-01-26T11:03:11.114Z,6.00
2018-01-26T11:05:38.591Z,5.70
2018-01-26T11:08:06.115Z,5.50
2018-01-26T11:10:33.586Z,5.87
2018-01-26T11:13:01.067Z,5.13
2018-01-26T11:15:28.560Z,5.47
2018-01-26T11:17:56.056Z,5.17
2018-01-26T11:20:23.533Z,5.50
2018-01-26T11:22:52.039Z,5.13
2018-01-26T11:25:19.524Z,5.77
2018-01-26T11:27:47.987Z,4.77
2018-01-26T11:30:15.478Z,4.93
2018-01-26T11:32:42.958Z,4.97
2018-01-26T11:35:10.423Z,5.40
2018-01-26T11:37:37.899Z,4.57
2018-01-26T11:40:05.355Z,4.80
2018-01-26T11:42:32.831Z,4.53
2018-01-26T11:45:00.278Z,4.73
2018-01-26T11:47:27.751Z,5.23
2018-01-26T11:49:55.210Z,5.07
2018-01-26T11:52:22.690Z,5.50
2018-01-26T11:54:50.147Z,4.83
2018-01-26T11:57:17.623Z,4.83
2018-01-26T11:59:45.138Z,4.63
2018-01-26T12:02:12.618Z,5.17
2018-01-26T12:04:40.075Z,4.77
2018-01-26T12:07:07.554Z,4.73
2018-01-26T12:09:35.010Z,4.87
2018-01-26T12:12:02.466Z,4.40
2018-01-26T12:14:29.938Z,4.83
2018-01-26T12:16:57.398Z,4.63
2018-01-26T12:19:24.866Z,4.50
2018-01-26T12:21:52.319Z,3.97
2018-01-26T12:24:19.789Z,4.13
2018-01-26T12:26:47.238Z,3.80
2018-01-26T12:29:14.754Z,4.10
2018-01-26T12:31:42.211Z,3.90
2018-01-26T12:34:09.691Z,3.60
2018-01-26T12:36:37.154Z,4.10
2018-01-26T12:39:04.642Z,4.60
2018-01-26T12:41:32.090Z,4.40
2018-01-26T12:43:59.559Z,4.00
2018-01-26T12:46:27.001Z,3.43
2018-01-26T12:48:54.466Z,3.40
2018-01-26T12:51:21.914Z,4.00
2018-01-26T12:53:49.419Z,3.83
2018-01-26T12:56:16.945Z,3.20
2018-01-26T12:58:44.422Z,3.70
2018-01-26T13:01:11.911Z,3.90
2018-01-26T13:03:39.378Z,4.30
2018-01-26T13:06:06.834Z,3.73
2018-01-26T13:08:34.894Z,3.70
2018-01-26T13:11:02.359Z,4.20
2018-01-26T13:13:29.828Z,3.57
2018-01-26T13:15:57.290Z,3.43
2018-01-26T13:18:24.772Z,3.87
2018-01-26T13:20:52.236Z,4.20
2018-01-26T13:23:19.710Z,4.07
2018-01-26T13:25:47.170Z,5.13
2018-01-26T13:28:14.652Z,4.50
2018-01-26T13:30:42.104Z,4.87
2018-01-26T13:33:09.563Z,5.20
2018-01-26T13:35:37.182Z,4.10
2018-01-26T13:38:04.633Z,3.90
2018-01-26T13:40:32.123Z,4.30
2018-01-26T13:42:59.583Z,4.00
2018-01-26T13:45:27.066Z,4.10
2018-01-26T13:47:54.531Z,3.70
2018-01-26T13:50:22.007Z,3.77
2018-01-26T13:52:49.464Z,4.37
2018-01-26T13:55:16.959Z,3.97
2018-01-26T13:57:44.419Z,3.90
2018-01-26T14:00:11.902Z,5.00
2018-01-26T14:02:39.362Z,4.20
2018-01-26T14:05:06.834Z,4.37
2018-01-26T14:07:34.327Z,4.70
2018-01-26T14:10:01.817Z,4.60
2018-01-26T14:12:50.203Z,4.10
2018-01-26T14:15:17.679Z,4.93
2018-01-26T14:17:45.367Z,4.43
2018-01-26T14:20:12.879Z,4.10
2018-01-26T14:22:40.359Z,4.87
2018-01-26T14:25:08.839Z,5.17
2018-01-26T14:27:37.187Z,6.10
2018-01-26T14:30:04.751Z,5.03
2018-01-26T14:32:32.293Z,5.17
2018-01-26T14:34:59.844Z,6.30
2018-01-26T14:37:27.409Z,5.40
2018-01-26T14:39:55.006Z,6.03
2018-01-26T14:42:22.647Z,5.23
2018-01-26T14:44:50.200Z,5.73
2018-01-26T14:47:18.025Z,5.40
2018-01-26T14:49:45.623Z,5.80
2018-01-26T14:52:13.255Z,5.60
2018-01-26T14:54:40.798Z,5.37
2018-01-26T14:57:08.335Z,5.57
2018-01-26T14:59:35.863Z,5.90
2018-01-26T15:02:03.432Z,5.40
2018-01-26T15:04:30.935Z,4.77
2018-01-26T15:06:58.408Z,5.50
2018-01-26T15:09:25.875Z,5.50
2018-01-26T15:11:53.379Z,5.27
2018-01-26T15:14:20.862Z,5.50
2018-01-26T15:16:48.424Z,5.53
2018-01-26T15:19:15.891Z,6.33
2018-01-26T15:21:43.367Z,6.93
2018-01-26T15:24:10.841Z,12.50
2018-01-26T15:26:38.319Z,17.57
2018-01-26T15:29:06.110Z,19.83
2018-01-26T15:31:33.586Z,22.77
2018-01-26T15:34:01.053Z,21.50
2018-01-26T15:36:29.351Z,35.63
2018-01-26T15:39:03.323Z,57.40
2018-01-26T15:41:30.804Z,47.67
2018-01-26T15:43:58.371Z,20.83
2018-01-26T15:46:25.860Z,22.87
2018-01-26T15:48:53.330Z,12.67
2018-01-26T15:51:20.831Z,9.13
2018-01-26T15:53:48.360Z,8.50
2018-01-26T15:56:15.919Z,8.47
2018-01-26T15:58:43.462Z,7.27
2018-01-26T16:01:11.028Z,6.83
2018-01-26T16:03:38.545Z,6.33
2018-01-26T16:06:06.471Z,6.53
2018-01-26T16:08:33.992Z,6.47
2018-01-26T16:11:01.570Z,6.80
2018-01-26T16:13:29.138Z,6.30
2018-01-26T16:16:04.355Z,7.30
2018-01-26T16:18:32.024Z,7.23
2018-01-26T16:21:02.988Z,7.90
2018-01-26T16:23:30.502Z,9.90
2018-01-26T16:25:58.097Z,11.13
2018-01-26T16:28:25.698Z,13.10
2018-01-26T16:30:53.264Z,10.93
2018-01-26T16:33:20.810Z,8.67
2018-01-26T16:35:48.379Z,8.90
2018-01-26T16:38:15.937Z,8.57
2018-01-26T16:40:43.520Z,8.40
2018-01-26T16:43:11.053Z,16.17
2018-01-26T16:45:38.575Z,16.80
2018-01-26T16:48:06.142Z,14.23
2018-01-26T16:50:33.645Z,18.40
2018-01-26T16:53:01.155Z,15.67
2018-01-26T16:55:28.620Z,16.10
2018-01-26T16:57:56.103Z,15.50
2018-01-26T17:00:23.579Z,15.20
2018-01-26T17:02:51.078Z,13.57
2018-01-26T17:05:18.570Z,13.67
2018-01-26T17:07:46.069Z,12.80
2018-01-26T17:10:13.554Z,11.73
2018-01-26T17:12:41.043Z,10.53
2018-01-26T17:15:08.506Z,9.40
2018-01-26T17:17:35.986Z,9.20
2018-01-26T17:20:03.615Z,10.13
2018-01-26T17:22:31.098Z,9.43
2018-01-26T17:24:58.567Z,9.03
2018-01-26T17:27:26.059Z,9.13
2018-01-26T17:32:27.722Z,8.43
2018-01-26T17:34:55.207Z,8.20
2018-01-26T17:37:22.702Z,8.30
2018-01-26T17:39:50.194Z,8.13
2018-01-26T17:42:17.690Z,8.77
2018-01-26T17:44:45.249Z,9.23
2018-01-26T17:47:12.865Z,8.47
2018-01-26T17:49:40.413Z,10.17
2018-01-26T17:52:08.027Z,8.80
2018-01-26T17:54:35.600Z,10.20
2018-01-26T17:57:03.119Z,13.07
2018-01-26T17:59:30.595Z,13.43
2018-01-26T18:01:58.125Z,11.17
2018-01-26T18:04:25.597Z,8.73
2018-01-26T18:06:53.304Z,9.53
2018-01-26T18:09:20.858Z,9.40
2018-01-26T18:11:48.384Z,10.73
2018-01-26T18:14:15.965Z,10.80
2018-01-26T18:16:43.541Z,13.00
2018-01-26T18:19:11.114Z,16.23
2018-01-26T18:21:38.732Z,15.07
2018-01-26T18:24:06.316Z,14.83
2018-01-26T18:26:33.914Z,14.47
2018-01-26T18:29:01.485Z,12.13
2018-01-26T18:31:33.734Z,12.07
2018-01-26T18:34:01.372Z,11.00
2018-01-26T18:36:28.914Z,10.77
2018-01-26T18:38:56.551Z,12.27
2018-01-26T18:41:24.057Z,13.50
2018-01-26T18:43:51.597Z,17.03
2018-01-26T18:46:19.222Z,19.80
2018-01-26T18:48:46.816Z,18.00
2018-01-26T18:51:14.380Z,22.33
2018-01-26T18:53:41.965Z,33.53
2018-01-26T18:56:09.566Z,26.83
2018-01-26T18:58:37.140Z,26.27
2018-01-26T19:01:04.614Z,22.30
2018-01-26T19:03:32.223Z,27.33
2018-01-26T19:05:59.775Z,21.93
2018-01-26T19:08:27.342Z,17.93
2018-01-26T19:10:54.944Z,16.27
2018-01-26T19:13:22.535Z,16.13
2018-01-26T19:15:50.102Z,14.67
2018-01-26T19:18:17.699Z,15.77
2018-01-26T19:20:45.251Z,16.93
2018-01-26T19:23:12.819Z,16.90
2018-01-26T19:25:40.371Z,16.50
2018-01-26T19:28:07.986Z,17.03
2018-01-26T19:30:35.575Z,16.43
2018-01-26T19:33:03.221Z,16.27
2018-01-26T19:35:30.730Z,16.30
2018-01-26T19:37:59.227Z,18.40
2018-01-26T19:40:26.849Z,18.83
2018-01-26T19:42:54.488Z,23.07
2018-01-26T19:45:22.153Z,27.13
2018-01-26T19:47:49.824Z,27.87
2018-01-26T19:50:22.598Z,27.77
2018-01-26T19:52:50.591Z,28.07
2018-01-26T19:55:18.200Z,27.90
2018-01-26T19:57:45.759Z,27.87
2018-01-26T20:00:14.736Z,26.23
2018-01-26T20:02:42.568Z,27.23
2018-01-26T20:05:28.463Z,26.43
2018-01-26T20:08:00.888Z,25.60
2018-01-26T20:10:29.363Z,26.37
2018-01-26T20:13:02.964Z,25.73
2018-01-26T20:15:30.620Z,24.40
2018-01-26T20:17:58.110Z,22.07
2018-01-26T20:20:25.611Z,19.37
2018-01-26T20:22:53.084Z,16.80
2018-01-26T20:25:20.566Z,13.57
2018-01-26T20:27:48.027Z,14.93
2018-01-26T20:30:15.513Z,14.23
2018-01-26T20:32:42.979Z,15.27
2018-01-26T20:35:10.489Z,14.60
2018-01-26T20:37:37.951Z,14.83
2018-01-26T20:40:05.428Z,13.60
2018-01-26T20:42:32.893Z,13.73
2018-01-26T20:45:00.378Z,13.57
2018-01-26T20:47:27.844Z,12.80
2018-01-26T20:49:55.344Z,12.23
2018-01-26T20:52:22.810Z,13.57
2018-01-26T20:54:50.274Z,11.13
2018-01-26T20:57:17.752Z,9.60
2018-01-26T20:59:45.211Z,9.87
2018-01-26T21:02:12.691Z,10.30
2018-01-26T21:04:40.167Z,12.13
2018-01-26T21:07:07.651Z,13.47
2018-01-26T21:09:35.148Z,13.47
2018-01-26T21:12:02.627Z,13.10
2018-01-26T21:14:30.096Z,15.13
2018-01-26T21:16:57.579Z,16.97
2018-01-26T21:19:25.049Z,20.23
2018-01-26T21:21:52.539Z,22.03
2018-01-26T21:24:20.938Z,24.73
2018-01-26T21:26:48.732Z,25.40
2018-01-26T21:29:16.396Z,25.40
2018-01-26T21:31:44.399Z,26.63
2018-01-26T21:34:12.156Z,28.03
2018-01-26T21:36:39.659Z,29.53
2018-01-26T21:39:07.131Z,21.80
2018-01-26T21:41:34.715Z,18.73
2018-01-26T21:44:02.742Z,18.33
2018-01-26T21:46:31.292Z,20.77
2018-01-26T21:48:58.825Z,25.67
2018-01-26T21:51:26.432Z,26.83
2018-01-26T21:53:55.140Z,28.17
2018-01-26T21:56:22.772Z,28.30
2018-01-26T21:58:50.360Z,25.77
2018-01-26T22:01:18.138Z,25.10
2018-01-26T22:03:46.085Z,24.33
2018-01-26T22:06:19.223Z,24.53
2018-01-26T22:08:46.836Z,27.97
2018-01-26T22:11:14.495Z,26.23
2018-01-26T22:13:42.287Z,22.13
2018-01-26T22:16:09.925Z,23.17
2018-01-26T22:18:37.560Z,22.20
2018-01-26T22:21:05.212Z,22.93
2018-01-26T22:23:32.712Z,21.93
2018-01-26T22:26:00.171Z,24.00
2018-01-26T22:28:27.658Z,25.20
2018-01-26T22:30:55.110Z,24.73
2018-01-26T22:33:22.616Z,21.93
2018-01-26T22:35:50.524Z,20.60
2018-01-26T22:38:18.211Z,19.00
2018-01-26T22:40:46.211Z,19.93
2018-01-26T22:43:13.875Z,20.27
2018-01-26T22:45:41.509Z,20.17
2018-01-26T22:48:09.099Z,17.97
2018-01-26T22:50:36.587Z,18.13
2018-01-26T22:53:04.563Z,17.20
2018-01-26T22:55:32.201Z,16.50
2018-01-26T22:58:00.128Z,17.23
2018-01-26T23:00:27.602Z,17.07
2018-01-26T23:03:04.228Z,17.80
2018-01-26T23:08:04.764Z,16.33
2018-01-26T23:10:32.244Z,16.07
2018-01-26T23:12:59.731Z,14.73
2018-01-26T23:15:27.190Z,15.00
2018-01-26T23:17:54.672Z,14.07
2018-01-26T23:20:22.142Z,14.93
2018-01-26T23:22:49.622Z,14.53
2018-01-26T23:25:17.110Z,13.87
2018-01-26T23:27:44.630Z,13.57
2018-01-26T23:30:12.106Z,13.60
2018-01-26T23:32:39.587Z,13.57
2018-01-26T23:35:07.057Z,13.00
2018-01-26T23:37:34.530Z,13.53
2018-01-26T23:40:02.001Z,14.50
2018-01-26T23:42:29.483Z,14.83
2018-01-26T23:44:56.950Z,14.90
2018-01-26T23:47:24.443Z,13.97
2018-01-26T23:49:51.902Z,13.63
2018-01-26T23:52:19.387Z,13.63
2018-01-26T23:54:46.878Z,13.30
2018-01-26T23:57:14.339Z,13.33
2018-01-26T23:59:41.843Z,12.93
